createdAt,value
2023-01-06T00:01:07.346Z,12.51
2023-01-06T00:03:34.228Z,12.30
2023-01-06T00:06:02.154Z,12.49
2023-01-06T00:08:29.165Z,12.48
2023-01-06T00:10:56.092Z,12.35
2023-01-06T00:13:23.315Z,12.21
2023-01-06T00:15:50.346Z,12.57
2023-01-06T00:18:17.255Z,12.57
2023-01-06T00:20:44.102Z,12.78
2023-01-06T00:23:10.953Z,12.56
2023-01-06T00:25:37.806Z,13.08
2023-01-06T00:28:04.723Z,12.97
2023-01-06T00:30:31.615Z,13.20
2023-01-06T00:32:58.476Z,12.84
2023-01-06T00:35:25.337Z,12.34
2023-01-06T00:37:52.170Z,12.53
2023-01-06T00:40:18.825Z,12.36
2023-01-06T00:42:45.675Z,12.00
2023-01-06T00:45:12.640Z,11.94
2023-01-06T00:47:39.561Z,11.92
2023-01-06T00:50:06.991Z,11.88
2023-01-06T00:52:34.450Z,11.88
2023-01-06T00:55:01.304Z,12.30
2023-01-06T00:57:28.334Z,12.16
2023-01-06T00:59:55.201Z,11.94
2023-01-06T01:02:22.355Z,12.20
2023-01-06T01:04:49.413Z,11.73
2023-01-06T01:07:17.160Z,12.32
2023-01-06T01:09:44.016Z,12.05
2023-01-06T01:12:14.906Z,12.11
2023-01-06T01:14:47.513Z,12.65
2023-01-06T01:17:17.634Z,12.21
2023-01-06T01:19:44.469Z,12.52
2023-01-06T01:22:11.443Z,12.83
2023-01-06T01:24:38.735Z,13.34
2023-01-06T01:27:06.281Z,12.99
2023-01-06T01:29:33.362Z,13.08
2023-01-06T01:32:00.733Z,13.54
2023-01-06T01:34:27.781Z,13.49
2023-01-06T01:36:55.135Z,13.21
2023-01-06T01:39:24.584Z,12.97
2023-01-06T01:41:52.115Z,13.41
2023-01-06T01:44:54.525Z,13.21
2023-01-06T01:47:36.262Z,12.95
2023-01-06T01:50:15.114Z,12.42
2023-01-06T01:52:43.343Z,12.56
2023-01-06T01:55:11.239Z,12.64
2023-01-06T01:57:49.119Z,12.94
2023-01-06T02:00:16.282Z,12.93
2023-01-06T02:02:43.613Z,13.07
2023-01-06T02:05:13.124Z,12.60
2023-01-06T02:07:40.976Z,13.00
2023-01-06T02:10:17.477Z,13.03
2023-01-06T02:12:47.305Z,12.79
2023-01-06T02:15:19.184Z,12.70
2023-01-06T02:18:07.375Z,13.04
2023-01-06T02:20:34.170Z,13.41
2023-01-06T02:23:19.637Z,13.09
2023-01-06T02:25:55.956Z,13.78
2023-01-06T02:28:53.752Z,13.48
2023-01-06T02:31:52.696Z,12.76
2023-01-06T02:34:31.897Z,13.14
2023-01-06T02:37:36.486Z,12.52
2023-01-06T02:40:17.696Z,12.18
2023-01-06T02:43:08.958Z,13.02
2023-01-06T02:45:35.790Z,13.24
2023-01-06T02:48:30.249Z,12.75
2023-01-06T02:51:04.712Z,13.66
2023-01-06T02:53:41.071Z,12.90
2023-01-06T02:56:08.547Z,13.45
2023-01-06T02:59:01.452Z,13.92
2023-01-06T03:01:35.688Z,14.66
2023-01-06T03:04:06.000Z,13.70
2023-01-06T03:06:33.423Z,13.57
2023-01-06T03:09:01.518Z,13.60
2023-01-06T03:11:29.655Z,13.31
2023-01-06T03:14:00.825Z,13.59
2023-01-06T03:16:27.799Z,13.45
2023-01-06T03:18:55.042Z,12.90
2023-01-06T03:21:25.547Z,13.17
2023-01-06T03:23:52.633Z,13.22
2023-01-06T03:26:19.683Z,13.18
2023-01-06T03:28:46.560Z,12.58
2023-01-06T03:31:43.800Z,12.80
2023-01-06T03:34:22.504Z,13.02
2023-01-06T03:36:55.398Z,13.70
2023-01-06T03:39:37.320Z,13.43
2023-01-06T03:42:40.560Z,13.01
2023-01-06T03:45:24.455Z,13.45
2023-01-06T03:47:56.972Z,13.45
2023-01-06T03:50:29.303Z,12.30
2023-01-06T03:53:04.033Z,13.14
2023-01-06T03:55:32.903Z,13.88
2023-01-06T03:58:01.231Z,13.78
2023-01-06T04:00:31.977Z,13.85
2023-01-06T04:03:01.024Z,13.96
2023-01-06T04:05:28.915Z,13.67
2023-01-06T04:07:55.823Z,14.36
2023-01-06T04:10:23.618Z,14.57
2023-01-06T04:12:50.883Z,14.02
2023-01-06T04:15:20.218Z,13.29
2023-01-06T04:17:48.027Z,13.38
2023-01-06T04:20:17.583Z,13.20
2023-01-06T04:22:44.451Z,13.13
2023-01-06T04:25:11.966Z,12.93
2023-01-06T04:27:38.892Z,12.65
2023-01-06T04:30:06.938Z,12.66
2023-01-06T04:32:33.943Z,12.93
2023-01-06T04:35:00.812Z,12.73
2023-01-06T04:37:27.701Z,12.70
2023-01-06T04:39:54.536Z,11.83
2023-01-06T04:42:21.449Z,12.61
2023-01-06T04:44:48.310Z,12.91
2023-01-06T04:47:15.260Z,12.81
2023-01-06T04:49:42.140Z,12.76
2023-01-06T04:52:09.129Z,12.40
2023-01-06T04:54:36.665Z,12.23
2023-01-06T04:57:03.717Z,11.78
2023-01-06T04:59:30.647Z,10.96
2023-01-06T05:01:57.589Z,11.84
2023-01-06T05:04:24.512Z,11.55
2023-01-06T05:06:51.542Z,11.79
2023-01-06T05:09:18.377Z,11.80
2023-01-06T05:11:45.291Z,12.31
2023-01-06T05:14:12.304Z,12.22
2023-01-06T05:16:40.006Z,12.99
2023-01-06T05:19:06.980Z,12.28
2023-01-06T05:21:33.848Z,12.51
2023-01-06T05:24:01.082Z,12.39
2023-01-06T05:26:28.409Z,12.93
2023-01-06T05:28:55.601Z,13.09
2023-01-06T05:31:22.907Z,13.38
2023-01-06T05:33:49.852Z,13.31
2023-01-06T05:36:18.091Z,13.59
2023-01-06T05:38:45.709Z,13.31
2023-01-06T05:41:12.726Z,12.78
2023-01-06T05:43:39.844Z,13.60
2023-01-06T05:46:08.742Z,13.30
2023-01-06T05:48:36.438Z,13.47
2023-01-06T05:51:10.943Z,13.14
2023-01-06T05:53:40.665Z,13.18
2023-01-06T05:56:09.441Z,13.34
2023-01-06T05:58:37.296Z,13.56
2023-01-06T06:01:04.987Z,13.26
2023-01-06T06:03:32.768Z,13.62
2023-01-06T06:06:06.910Z,13.49
2023-01-06T06:08:34.078Z,13.71
2023-01-06T06:11:05.695Z,14.05
2023-01-06T06:13:32.704Z,13.96
2023-01-06T06:16:13.922Z,14.35
2023-01-06T06:18:44.844Z,13.65
2023-01-06T06:21:16.401Z,13.28
2023-01-06T06:23:43.555Z,11.79
2023-01-06T06:26:11.692Z,12.29
2023-01-06T06:28:39.086Z,12.50
2023-01-06T06:31:08.262Z,12.22
2023-01-06T06:33:35.291Z,13.01
2023-01-06T06:36:02.732Z,12.13
2023-01-06T06:38:29.738Z,12.75
2023-01-06T06:40:56.638Z,12.91
2023-01-06T06:43:23.604Z,13.78
2023-01-06T06:45:50.559Z,13.57
2023-01-06T06:48:17.546Z,13.99
2023-01-06T06:50:44.408Z,13.32
2023-01-06T06:53:11.282Z,13.25
2023-01-06T06:55:38.181Z,12.70
2023-01-06T06:58:05.064Z,12.80
2023-01-06T07:00:31.940Z,13.03
2023-01-06T07:02:58.793Z,13.08
2023-01-06T07:05:25.896Z,12.73
2023-01-06T07:07:52.749Z,12.91
2023-01-06T07:10:19.668Z,12.93
2023-01-06T07:12:46.560Z,12.37
2023-01-06T07:15:13.425Z,13.10
2023-01-06T07:17:41.953Z,13.64
2023-01-06T07:20:11.484Z,13.49
2023-01-06T07:22:42.253Z,14.01
2023-01-06T07:25:09.882Z,13.61
2023-01-06T07:27:37.169Z,14.15
2023-01-06T07:30:05.406Z,14.60
2023-01-06T07:32:32.350Z,14.61
2023-01-06T07:34:59.259Z,14.63
2023-01-06T07:37:26.126Z,15.09
2023-01-06T07:39:52.967Z,15.01
2023-01-06T07:42:19.846Z,14.96
2023-01-06T07:44:46.679Z,14.96
2023-01-06T07:47:14.316Z,15.43
2023-01-06T07:49:41.326Z,15.40
2023-01-06T07:52:08.172Z,15.13
2023-01-06T07:54:35.075Z,14.80
2023-01-06T07:57:01.940Z,14.05
2023-01-06T07:59:28.783Z,14.02
2023-01-06T08:01:55.763Z,14.56
2023-01-06T08:04:22.721Z,14.76
2023-01-06T08:06:49.614Z,15.33
2023-01-06T08:09:16.455Z,16.12
2023-01-06T08:11:43.331Z,16.55
2023-01-06T08:14:11.762Z,16.67
2023-01-06T08:16:40.137Z,17.06
2023-01-06T08:19:07.239Z,17.06
2023-01-06T08:21:34.164Z,17.29
2023-01-06T08:24:01.037Z,17.53
2023-01-06T08:26:27.958Z,16.81
2023-01-06T08:28:55.317Z,16.57
2023-01-06T08:31:23.052Z,16.70
2023-01-06T08:33:51.930Z,16.74
2023-01-06T08:36:20.246Z,17.25
2023-01-06T08:38:47.710Z,18.29
2023-01-06T08:41:15.339Z,17.18
2023-01-06T08:43:45.569Z,17.88
2023-01-06T08:46:16.375Z,17.34
2023-01-06T08:48:43.924Z,18.71
2023-01-06T08:51:16.479Z,18.42
2023-01-06T08:53:44.200Z,19.04
2023-01-06T08:56:16.014Z,19.53
2023-01-06T08:58:42.973Z,18.27
2023-01-06T09:01:19.440Z,18.11
2023-01-06T09:03:46.436Z,18.35
2023-01-06T09:06:13.686Z,17.35
2023-01-06T09:08:40.568Z,17.31
2023-01-06T09:11:08.857Z,16.61
2023-01-06T09:13:36.565Z,16.26
2023-01-06T09:16:10.130Z,16.46
2023-01-06T09:18:37.752Z,16.65
2023-01-06T09:21:05.605Z,16.89
2023-01-06T09:23:33.213Z,16.52
2023-01-06T09:26:00.110Z,17.99
2023-01-06T09:28:27.007Z,17.44
2023-01-06T09:30:53.955Z,17.87
2023-01-06T09:33:21.276Z,18.37
2023-01-06T09:35:48.204Z,18.65
2023-01-06T09:38:15.423Z,18.29
2023-01-06T09:40:46.036Z,18.04
2023-01-06T09:43:23.534Z,17.93
2023-01-06T09:45:54.271Z,17.55
2023-01-06T09:48:26.527Z,17.60
2023-01-06T09:51:00.187Z,17.22
2023-01-06T09:53:35.385Z,17.08
2023-01-06T09:56:06.722Z,16.83
2023-01-06T09:58:55.715Z,16.52
2023-01-06T10:01:31.545Z,16.43
2023-01-06T10:03:59.384Z,16.40
2023-01-06T10:06:35.264Z,16.16
2023-01-06T10:09:12.628Z,15.72
2023-01-06T10:11:58.677Z,15.41
2023-01-06T10:14:59.010Z,15.41
2023-01-06T10:17:34.945Z,15.56
2023-01-06T10:20:30.888Z,15.39
2023-01-06T10:23:31.114Z,15.57
2023-01-06T10:26:10.797Z,15.87
2023-01-06T10:28:53.260Z,16.31
2023-01-06T10:31:29.012Z,16.15
2023-01-06T10:33:57.230Z,15.85
2023-01-06T10:36:45.073Z,15.70
2023-01-06T10:39:18.438Z,15.36
2023-01-06T10:42:20.705Z,15.53
2023-01-06T10:44:49.430Z,15.81
2023-01-06T10:47:23.475Z,15.41
2023-01-06T10:49:50.513Z,15.07
2023-01-06T10:52:19.901Z,16.01
2023-01-06T10:54:47.165Z,15.53
2023-01-06T10:57:21.163Z,16.34
2023-01-06T11:00:07.610Z,15.98
2023-01-06T11:02:34.611Z,15.78
2023-01-06T11:05:02.237Z,16.38
2023-01-06T11:07:30.021Z,16.43
2023-01-06T11:09:57.646Z,17.05
2023-01-06T11:12:27.361Z,17.22
2023-01-06T11:15:09.467Z,17.11
2023-01-06T11:17:36.543Z,17.22
2023-01-06T11:20:09.891Z,17.54
2023-01-06T11:22:44.261Z,18.20
2023-01-06T11:25:20.149Z,19.28
2023-01-06T11:28:07.184Z,19.42
2023-01-06T11:30:39.245Z,19.48
2023-01-06T11:33:15.067Z,18.85
2023-01-06T11:35:42.207Z,19.99
2023-01-06T11:38:13.691Z,21.05
2023-01-06T11:40:40.794Z,21.11
2023-01-06T11:43:15.107Z,21.06
2023-01-06T11:45:49.355Z,21.25
2023-01-06T11:48:28.751Z,20.51
2023-01-06T11:51:11.069Z,20.84
2023-01-06T11:53:39.342Z,21.04
2023-01-06T11:56:19.815Z,21.81
2023-01-06T11:59:10.177Z,21.67
2023-01-06T12:04:41.544Z,21.33
2023-01-06T12:07:21.478Z,21.56
2023-01-06T12:09:58.611Z,21.33
2023-01-06T12:12:27.827Z,20.82
2023-01-06T12:14:55.159Z,21.17
2023-01-06T12:17:55.835Z,20.76
2023-01-06T12:20:47.761Z,20.97
2023-01-06T12:23:24.155Z,20.85
2023-01-06T12:25:53.569Z,20.57
2023-01-06T12:28:28.369Z,20.10
2023-01-06T12:31:03.815Z,20.16
2023-01-06T12:33:40.677Z,20.77
2023-01-06T12:36:33.883Z,19.49
2023-01-06T12:39:12.713Z,20.05
2023-01-06T12:42:29.037Z,19.93
2023-01-06T12:45:01.669Z,19.61
2023-01-06T12:47:40.521Z,19.21
2023-01-06T12:50:20.709Z,19.49
2023-01-06T12:52:48.698Z,18.66
2023-01-06T12:55:53.672Z,18.74
2023-01-06T12:58:48.790Z,17.83
2023-01-06T13:01:17.678Z,17.63
2023-01-06T13:04:07.981Z,17.31
2023-01-06T13:06:57.165Z,17.70
2023-01-06T13:15:28.237Z,18.04
2023-01-06T13:26:49.890Z,18.57
2023-01-06T13:29:30.553Z,18.64
2023-01-06T13:43:50.534Z,18.15
2023-01-06T13:49:04.875Z,18.34
2023-01-06T13:51:35.178Z,18.49
2023-01-06T13:54:03.245Z,18.84
2023-01-06T13:56:36.178Z,19.31
2023-01-06T14:06:49.576Z,18.50
2023-01-06T14:09:18.545Z,18.18
2023-01-06T14:11:45.942Z,18.12
2023-01-06T14:14:28.603Z,18.39
2023-01-06T14:17:12.437Z,18.30
2023-01-06T14:22:41.714Z,18.58
2023-01-06T14:27:46.669Z,18.10
2023-01-06T14:30:37.680Z,17.94
2023-01-06T14:33:07.846Z,17.70
2023-01-06T14:35:43.983Z,17.58
2023-01-06T14:38:20.423Z,16.86
2023-01-06T14:41:05.486Z,16.62
2023-01-06T14:43:44.067Z,17.15
2023-01-06T14:46:24.529Z,17.26
2023-01-06T14:48:55.683Z,16.86
2023-01-06T14:51:22.887Z,16.69
2023-01-06T14:53:55.327Z,16.90
2023-01-06T14:56:23.896Z,17.06
2023-01-06T14:58:50.748Z,17.10
2023-01-06T15:01:25.906Z,17.20
2023-01-06T15:03:55.716Z,17.11
2023-01-06T15:06:24.746Z,17.73
2023-01-06T15:08:51.838Z,17.17
2023-01-06T15:11:30.142Z,17.11
2023-01-06T15:13:57.144Z,17.49
2023-01-06T15:16:36.901Z,17.65
2023-01-06T15:19:07.765Z,16.93
2023-01-06T15:21:42.285Z,17.45
2023-01-06T15:24:42.129Z,16.66
2023-01-06T15:27:13.228Z,16.23
2023-01-06T15:29:50.001Z,14.99
2023-01-06T15:32:17.223Z,15.00
2023-01-06T15:34:47.568Z,15.73
2023-01-06T15:37:23.922Z,16.05
2023-01-06T15:39:52.566Z,15.97
2023-01-06T15:42:24.069Z,15.29
2023-01-06T15:45:24.326Z,16.24
2023-01-06T15:47:51.319Z,15.57
2023-01-06T15:50:20.740Z,16.72
2023-01-06T15:52:50.665Z,16.81
2023-01-06T15:55:25.194Z,16.87
2023-01-06T15:57:55.506Z,16.22
2023-01-06T16:00:29.248Z,16.89
2023-01-06T16:02:56.263Z,16.55
2023-01-06T16:05:37.371Z,15.97
2023-01-06T16:08:16.429Z,15.52
2023-01-06T16:10:46.307Z,15.62
2023-01-06T16:13:19.441Z,15.37
2023-01-06T16:15:52.205Z,15.40
2023-01-06T16:18:27.434Z,15.19
2023-01-06T16:20:54.698Z,15.12
2023-01-06T16:23:40.024Z,15.00
2023-01-06T16:26:19.146Z,14.56
2023-01-06T16:28:57.397Z,14.45
2023-01-06T16:31:36.519Z,14.14
2023-01-06T16:34:22.013Z,13.46
2023-01-06T16:36:49.974Z,13.26
2023-01-06T16:39:16.958Z,13.08
2023-01-06T16:41:58.964Z,12.97
2023-01-06T16:44:26.925Z,12.93
2023-01-06T16:46:53.828Z,12.88
2023-01-06T16:49:21.961Z,12.81
2023-01-06T16:51:49.185Z,12.79
2023-01-06T16:54:19.921Z,12.74
2023-01-06T16:56:47.219Z,12.68
2023-01-06T16:59:15.849Z,12.44
2023-01-06T17:01:44.200Z,12.74
2023-01-06T17:04:12.745Z,13.14
2023-01-06T17:06:40.956Z,12.97
2023-01-06T17:09:19.880Z,13.03
2023-01-06T17:11:48.255Z,12.75
2023-01-06T17:14:17.131Z,12.58
2023-01-06T17:16:44.330Z,12.84
2023-01-06T17:19:26.841Z,12.76
2023-01-06T17:22:22.888Z,12.89
2023-01-06T17:24:50.416Z,12.70
2023-01-06T17:27:26.698Z,12.99
2023-01-06T17:29:54.631Z,12.97
2023-01-06T17:32:23.690Z,13.29
2023-01-06T17:34:50.621Z,13.44
2023-01-06T17:37:25.500Z,13.40
2023-01-06T17:39:53.039Z,13.27
2023-01-06T17:42:26.449Z,12.43
2023-01-06T17:44:57.660Z,13.50
2023-01-06T17:47:24.461Z,13.14
2023-01-06T17:49:55.211Z,12.53
2023-01-06T17:52:24.836Z,12.29
2023-01-06T17:55:15.946Z,12.59
2023-01-06T17:57:46.238Z,12.27
2023-01-06T18:00:34.933Z,13.63
2023-01-06T18:03:05.671Z,13.95
2023-01-06T18:05:35.572Z,14.47
2023-01-06T18:08:05.352Z,14.29
2023-01-06T18:10:40.100Z,13.90
2023-01-06T18:13:16.450Z,13.78
2023-01-06T18:15:48.206Z,13.22
2023-01-06T18:18:25.246Z,12.99
2023-01-06T18:21:01.279Z,13.10
2023-01-06T18:23:28.548Z,13.14
2023-01-06T18:25:57.423Z,13.08
2023-01-06T18:28:24.399Z,12.72
2023-01-06T18:30:59.240Z,12.39
2023-01-06T18:33:26.356Z,12.07
2023-01-06T18:35:57.653Z,11.94
2023-01-06T18:38:30.382Z,12.27
2023-01-06T18:40:57.249Z,12.35
2023-01-06T18:43:29.925Z,12.55
2023-01-06T18:46:01.976Z,12.41
2023-01-06T18:48:35.072Z,12.57
2023-01-06T18:51:03.097Z,12.69
2023-01-06T18:53:31.906Z,12.86
2023-01-06T18:56:02.292Z,12.81
2023-01-06T18:58:37.326Z,13.09
2023-01-06T19:01:19.801Z,12.89
2023-01-06T19:04:01.986Z,12.84
2023-01-06T19:06:40.411Z,12.81
2023-01-06T19:09:17.753Z,12.94
2023-01-06T19:11:44.498Z,12.94
2023-01-06T19:14:17.658Z,13.31
2023-01-06T19:16:57.342Z,13.63
2023-01-06T19:19:27.560Z,14.40
2023-01-06T19:22:02.507Z,14.51
2023-01-06T19:24:29.515Z,14.49
2023-01-06T19:26:58.343Z,14.46
2023-01-06T19:29:32.462Z,14.20
2023-01-06T19:32:00.951Z,14.16
2023-01-06T19:34:29.433Z,13.65
2023-01-06T19:36:58.358Z,13.20
2023-01-06T19:39:37.477Z,12.99
2023-01-06T19:42:27.454Z,12.92
2023-01-06T19:44:58.043Z,12.69
2023-01-06T19:47:27.944Z,11.85
2023-01-06T19:50:00.103Z,11.75
2023-01-06T19:52:35.707Z,11.50
2023-01-06T19:55:14.530Z,11.19
2023-01-06T19:57:44.420Z,11.43
2023-01-06T20:00:47.284Z,11.35
2023-01-06T20:03:29.957Z,11.20
2023-01-06T20:05:56.923Z,11.47
2023-01-06T20:08:23.864Z,11.57
2023-01-06T20:10:50.800Z,11.55
2023-01-06T20:13:17.630Z,11.63
2023-01-06T20:15:44.298Z,11.61
2023-01-06T20:18:11.159Z,11.23
2023-01-06T20:20:38.057Z,11.64
2023-01-06T20:23:05.009Z,11.69
2023-01-06T20:25:31.904Z,11.83
2023-01-06T20:27:58.791Z,11.82
2023-01-06T20:30:26.511Z,11.55
2023-01-06T20:32:53.537Z,12.05
2023-01-06T20:35:20.454Z,11.54
2023-01-06T20:37:47.290Z,12.10
2023-01-06T20:40:13.960Z,12.34
2023-01-06T20:42:40.924Z,12.26
2023-01-06T20:45:08.243Z,12.22
2023-01-06T20:47:35.073Z,12.41
2023-01-06T20:50:01.718Z,12.08
2023-01-06T20:52:28.630Z,11.87
2023-01-06T20:54:55.465Z,12.07
2023-01-06T20:57:22.141Z,12.29
2023-01-06T20:59:48.976Z,12.04
2023-01-06T21:02:16.015Z,11.87
2023-01-06T21:04:42.982Z,12.01
2023-01-06T21:07:09.627Z,11.95
2023-01-06T21:09:36.469Z,12.26
2023-01-06T21:12:03.365Z,11.98
2023-01-06T21:14:31.043Z,11.99
2023-01-06T21:16:58.013Z,11.84
2023-01-06T21:19:24.905Z,12.20
2023-01-06T21:21:51.785Z,12.27
2023-01-06T21:24:18.627Z,12.31
2023-01-06T21:26:45.525Z,12.07
2023-01-06T21:29:12.517Z,12.31
2023-01-06T21:31:40.575Z,12.08
2023-01-06T21:34:07.644Z,11.95
2023-01-06T21:36:34.541Z,12.25
2023-01-06T21:39:01.461Z,12.26
2023-01-06T21:41:46.852Z,12.20
2023-01-06T21:44:13.688Z,12.33
2023-01-06T21:46:40.667Z,12.34
2023-01-06T21:49:07.669Z,12.50
2023-01-06T21:51:35.357Z,12.40
2023-01-06T21:54:03.117Z,12.42
2023-01-06T21:56:30.034Z,12.74
2023-01-06T21:58:57.204Z,12.75
2023-01-06T22:01:24.471Z,13.02
2023-01-06T22:03:51.428Z,13.18
2023-01-06T22:06:19.634Z,12.94
2023-01-06T22:08:50.446Z,13.65
2023-01-06T22:11:17.811Z,13.14
2023-01-06T22:13:44.853Z,14.04
2023-01-06T22:16:11.825Z,13.93
2023-01-06T22:18:38.697Z,13.98
2023-01-06T22:21:05.818Z,13.40
2023-01-06T22:23:33.395Z,13.16
2023-01-06T22:26:00.222Z,12.92
2023-01-06T22:28:28.084Z,12.72
2023-01-06T22:30:55.678Z,10.16
2023-01-06T22:33:22.556Z,11.92
2023-01-06T22:35:49.524Z,11.86
2023-01-06T22:38:16.436Z,12.53
2023-01-06T22:40:43.283Z,12.68
2023-01-06T22:43:10.163Z,13.35
2023-01-06T22:45:37.121Z,13.11
2023-01-06T22:48:04.052Z,13.31
2023-01-06T22:50:31.084Z,12.73
2023-01-06T22:52:57.975Z,12.20
2023-01-06T22:55:24.886Z,11.25
2023-01-06T22:57:51.807Z,11.39
2023-01-06T23:00:19.249Z,11.90
2023-01-06T23:02:46.393Z,12.00
2023-01-06T23:05:13.469Z,11.63
2023-01-06T23:07:41.794Z,11.90
2023-01-06T23:10:10.483Z,11.82
2023-01-06T23:12:39.280Z,11.63
2023-01-06T23:15:07.056Z,11.69
2023-01-06T23:17:34.027Z,12.49
2023-01-06T23:20:00.888Z,12.01
2023-01-06T23:22:27.797Z,11.74
2023-01-06T23:24:54.713Z,10.84
2023-01-06T23:27:21.570Z,10.79
2023-01-06T23:29:48.415Z,11.05
2023-01-06T23:32:15.300Z,11.41
2023-01-06T23:34:42.125Z,11.36
2023-01-06T23:37:08.773Z,11.94
2023-01-06T23:39:35.627Z,11.76
2023-01-06T23:42:04.440Z,11.84
2023-01-06T23:44:31.346Z,12.35
2023-01-06T23:46:58.223Z,12.36
2023-01-06T23:49:25.102Z,12.31
2023-01-06T23:51:51.989Z,12.14
2023-01-06T23:54:18.865Z,12.04
2023-01-06T23:56:45.741Z,11.94
2023-01-06T23:59:13.004Z,11.90
